Time;durP1;ratioP1;P1;durP2;ratioP2;P2;SDS_P1;SDS_P2;PMS_P1;PMS_P2;Temp;Humidity;BMP_temperature;BMP_pressure;BME280_temperature;BME280_humidity;BME280_pressure;Samples;Min_cycle;Max_cycle;Signal;HPM_P1;HPM_P2
2021/12/02 00:01:29;;;;;;;7.13;2.77;;;;;;;;;;5277914;28;20021;-78
2021/12/02 00:04:01;;;;;;;9.57;3.13;;;;;;;;;;5278531;28;20099;-77
2021/12/02 00:06:32;;;;;;;10.43;2.50;;;;;;;;;;5259814;28;20051;-77
2021/12/02 00:09:03;;;;;;;9.50;2.70;;;;;;;;;;5278234;28;20106;-77
2021/12/02 00:11:35;;;;;;;10.07;2.13;;;;;;;;;;5260126;28;20079;-78
2021/12/02 00:14:10;;;;;;;5.37;1.57;;;;;;;;;;5276920;28;20066;-77
2021/12/02 00:17:05;;;;;;;7.90;2.10;;;;;;;;;;5259824;28;20031;-76
2021/12/02 00:22:28;;;;;;;7.17;2.07;;;;;;;;;;5276959;28;20024;-77
2021/12/02 00:25:00;;;;;;;14.53;2.23;;;;;;;;;;5277278;28;20024;-77
2021/12/02 00:27:35;;;;;;;7.40;1.60;;;;;;;;;;5258171;28;20016;-77
2021/12/02 00:30:06;;;;;;;10.60;2.40;;;;;;;;;;5258972;28;20112;-77
2021/12/02 00:32:40;;;;;;;8.10;1.37;;;;;;;;;;5270862;28;20081;-76
2021/12/02 00:35:16;;;;;;;10.77;1.55;;;;;;;;;;5276953;28;20062;-77
2021/12/02 00:37:47;;;;;;;5.77;1.57;;;;;;;;;;5275778;28;20029;-77
2021/12/02 00:40:19;;;;;;;6.63;1.67;;;;;;;;;;5276328;28;20032;-77
2021/12/02 00:42:52;;;;;;;10.03;1.67;;;;;;;;;;5258091;28;20027;-77
2021/12/02 00:45:23;;;;;;;8.90;1.97;;;;;;;;;;5276540;28;20108;-77
2021/12/02 00:47:55;;;;;;;10.80;2.37;;;;;;;;;;5276428;28;20069;-77
2021/12/02 00:50:26;;;;;;;9.87;2.70;;;;;;;;;;5276476;28;20021;-77
2021/12/02 00:52:57;;;;;;;10.07;2.30;;;;;;;;;;5259132;28;20099;-77
2021/12/02 00:55:29;;;;;;;9.97;2.97;;;;;;;;;;5276011;28;20017;-78
2021/12/02 00:58:00;;;;;;;8.70;2.20;;;;;;;;;;5275933;28;20491;-77
2021/12/02 01:00:32;;;;;;;9.77;1.97;;;;;;;;;;5274876;28;20393;-78
2021/12/02 01:03:03;;;;;;;9.33;2.20;;;;;;;;;;5276698;28;20087;-78
2021/12/02 01:05:39;;;;;;;6.70;2.22;;;;;;;;;;5276130;28;20017;-77
2021/12/02 01:08:11;;;;;;;14.07;3.30;;;;;;;;;;5276127;28;20460;-78
2021/12/02 01:10:42;;;;;;;9.47;1.70;;;;;;;;;;5276178;28;20021;-78
2021/12/02 01:13:15;;;;;;;14.77;1.93;;;;;;;;;;5275237;28;20032;-78
2021/12/02 01:15:46;;;;;;;12.53;2.83;;;;;;;;;;5275647;28;20020;-78
2021/12/02 01:18:18;;;;;;;12.43;2.13;;;;;;;;;;5275937;28;20008;-78
2021/12/02 01:20:51;;;;;;;12.47;1.80;;;;;;;;;;5275679;28;20063;-78
2021/12/02 01:23:23;;;;;;;13.77;2.40;;;;;;;;;;5275691;28;20013;-77
2021/12/02 01:25:58;;;;;;;5.27;1.70;;;;;;;;;;5276008;28;20063;-77
2021/12/02 01:28:29;;;;;;;12.40;2.43;;;;;;;;;;5274574;28;20074;-77
2021/12/02 01:31:01;;;;;;;10.70;1.97;;;;;;;;;;5278041;28;20012;-77
2021/12/02 01:33:32;;;;;;;5.60;1.90;;;;;;;;;;5263813;28;20092;-76
2021/12/02 01:36:04;;;;;;;8.30;1.77;;;;;;;;;;5256680;28;20055;-76
2021/12/02 01:38:35;;;;;;;8.00;1.87;;;;;;;;;;5272890;28;20016;-77
2021/12/02 01:41:07;;;;;;;16.53;2.47;;;;;;;;;;5259435;28;20028;-77
2021/12/02 01:43:47;;;;;;;5.90;1.80;;;;;;;;;;5276191;28;20051;-75
2021/12/02 01:46:20;;;;;;;7.50;1.40;;;;;;;;;;5258757;28;20066;-76
2021/12/02 01:49:05;;;;;;;7.07;1.30;;;;;;;;;;5258755;28;20514;-77
2021/12/02 01:51:46;;;;;;;13.48;1.70;;;;;;;;;;5277066;28;20028;-77
2021/12/02 01:54:20;;;;;;;6.63;1.40;;;;;;;;;;5259267;28;20384;-76
2021/12/02 01:56:52;;;;;;;7.85;1.95;;;;;;;;;;5258927;28;20024;-76
2021/12/02 01:59:28;;;;;;;8.37;1.70;;;;;;;;;;5258018;28;20083;-77
2021/12/02 02:02:02;;;;;;;6.37;2.73;;;;;;;;;;5276942;28;20036;-77
2021/12/02 02:04:34;;;;;;;7.22;1.33;;;;;;;;;;5276865;28;20040;-78
2021/12/02 02:07:12;;;;;;;6.53;1.57;;;;;;;;;;5276865;28;20016;-77
2021/12/02 02:09:43;;;;;;;4.83;1.30;;;;;;;;;;5276756;28;20031;-77
2021/12/02 02:12:15;;;;;;;7.53;1.60;;;;;;;;;;5275383;28;20739;-76
2021/12/02 02:14:46;;;;;;;4.63;1.53;;;;;;;;;;5276574;28;20027;-76
2021/12/02 02:17:27;;;;;;;8.47;1.53;;;;;;;;;;5258641;28;20104;-75
2021/12/02 02:20:05;;;;;;;8.17;1.67;;;;;;;;;;5276292;28;20032;-77
2021/12/02 02:22:36;;;;;;;4.17;1.10;;;;;;;;;;5276455;28;20020;-77
2021/12/02 02:25:13;;;;;;;6.83;1.80;;;;;;;;;;5276479;28;20016;-77
2021/12/02 02:27:45;;;;;;;5.70;1.07;;;;;;;;;;5274501;28;20020;-76
2021/12/02 02:30:16;;;;;;;5.80;1.80;;;;;;;;;;5276738;28;20013;-76
2021/12/02 02:32:47;;;;;;;3.67;1.10;;;;;;;;;;5276116;28;20020;-77
2021/12/02 02:35:18;;;;;;;7.27;1.57;;;;;;;;;;5275786;28;20384;-78
2021/12/02 02:37:49;;;;;;;3.10;1.10;;;;;;;;;;5275989;28;20027;-79
2021/12/02 02:40:23;;;;;;;7.27;1.40;;;;;;;;;;5276099;28;20016;-78
2021/12/02 02:42:59;;;;;;;5.80;1.13;;;;;;;;;;5275826;28;20452;-78
2021/12/02 02:45:31;;;;;;;8.93;1.43;;;;;;;;;;5276062;28;20061;-77
2021/12/02 02:48:05;;;;;;;5.10;1.43;;;;;;;;;;5258104;28;20516;-77
2021/12/02 02:50:36;;;;;;;6.45;1.25;;;;;;;;;;5276199;28;20024;-77
2021/12/02 02:53:20;;;;;;;6.83;1.30;;;;;;;;;;5276324;28;20031;-77
2021/12/02 02:56:11;;;;;;;6.82;1.08;;;;;;;;;;5276126;28;20627;-77
2021/12/02 03:01:44;;;;;;;8.80;1.83;;;;;;;;;;5254733;28;20033;-78
2021/12/02 03:04:28;;;;;;;3.17;1.10;;;;;;;;;;5254068;28;20019;-78
2021/12/02 03:07:08;;;;;;;6.97;1.48;;;;;;;;;;5264279;28;20024;-78
2021/12/02 03:09:51;;;;;;;5.43;2.10;;;;;;;;;;5256783;28;20052;-78
2021/12/02 03:12:28;;;;;;;8.87;1.20;;;;;;;;;;5274790;28;20166;-78
2021/12/02 03:17:34;;;;;;;8.95;1.70;;;;;;;;;;5296057;28;20036;-77
2021/12/02 03:20:05;;;;;;;3.73;1.10;;;;;;;;;;5295449;28;20428;-77
2021/12/02 03:22:37;;;;;;;3.03;1.03;;;;;;;;;;5295800;28;20017;-78
2021/12/02 03:25:08;;;;;;;7.73;1.87;;;;;;;;;;5282505;28;20060;-78
2021/12/02 03:27:40;;;;;;;5.00;1.73;;;;;;;;;;5274555;28;20111;-78
2021/12/02 03:30:11;;;;;;;7.23;1.73;;;;;;;;;;5275725;28;20479;-77
2021/12/02 03:32:42;;;;;;;5.20;1.90;;;;;;;;;;5275008;28;20032;-77
2021/12/02 03:35:13;;;;;;;9.63;1.77;;;;;;;;;;5275529;28;20016;-77
2021/12/02 03:37:44;;;;;;;4.90;1.10;;;;;;;;;;5257416;28;20086;-78
2021/12/02 03:40:16;;;;;;;8.60;1.90;;;;;;;;;;5275497;28;20055;-77
2021/12/02 03:42:50;;;;;;;8.77;1.47;;;;;;;;;;5274494;28;20024;-77
2021/12/02 03:45:22;;;;;;;7.78;1.85;;;;;;;;;;5274825;28;20028;-76
2021/12/02 03:47:53;;;;;;;9.50;2.07;;;;;;;;;;5275386;28;20057;-77
2021/12/02 03:50:25;;;;;;;10.07;1.30;;;;;;;;;;5275160;28;20479;-77
2021/12/02 03:52:56;;;;;;;7.27;2.03;;;;;;;;;;5274906;28;20024;-77
2021/12/02 03:55:27;;;;;;;4.57;0.90;;;;;;;;;;5274587;28;20020;-77
2021/12/02 03:57:58;;;;;;;8.47;1.10;;;;;;;;;;5274561;28;20020;-77
2021/12/02 04:00:29;;;;;;;5.83;1.20;;;;;;;;;;5256687;28;20025;-77
2021/12/02 04:03:01;;;;;;;9.13;1.48;;;;;;;;;;5275443;28;20047;-77
2021/12/02 04:05:32;;;;;;;5.67;1.30;;;;;;;;;;5274854;28;20013;-77
2021/12/02 04:08:03;;;;;;;9.93;1.67;;;;;;;;;;5256838;28;20055;-78
2021/12/02 04:10:34;;;;;;;9.70;1.97;;;;;;;;;;5274959;28;20021;-76
2021/12/02 04:15:41;;;;;;;6.13;1.08;;;;;;;;;;5274925;28;20041;-78
2021/12/02 04:18:12;;;;;;;3.87;1.40;;;;;;;;;;5275292;28;20020;-77
2021/12/02 04:20:43;;;;;;;4.60;1.33;;;;;;;;;;5274648;28;20086;-77
2021/12/02 04:23:14;;;;;;;6.10;1.17;;;;;;;;;;5256897;28;20035;-77
2021/12/02 04:25:46;;;;;;;6.93;1.50;;;;;;;;;;5274471;28;20017;-76
2021/12/02 04:28:17;;;;;;;12.17;2.13;;;;;;;;;;5274178;28;20066;-77
2021/12/02 04:30:48;;;;;;;7.90;1.83;;;;;;;;;;5274553;28;20102;-77
2021/12/02 04:33:19;;;;;;;8.43;1.30;;;;;;;;;;5274619;28;20099;-77
2021/12/02 04:36:00;;;;;;;5.03;1.00;;;;;;;;;;5278362;28;20028;-76
2021/12/02 04:38:31;;;;;;;5.43;1.50;;;;;;;;;;5260367;28;20028;-77
2021/12/02 04:41:02;;;;;;;8.93;1.40;;;;;;;;;;5278577;28;20028;-77
2021/12/02 04:43:33;;;;;;;5.27;1.00;;;;;;;;;;5277185;28;20012;-77
2021/12/02 04:46:07;;;;;;;6.57;1.43;;;;;;;;;;5278279;28;20016;-77
2021/12/02 04:48:39;;;;;;;7.22;1.20;;;;;;;;;;5260755;28;20498;-76
2021/12/02 04:51:10;;;;;;;7.20;1.73;;;;;;;;;;5277873;28;20012;-76
2021/12/02 04:53:41;;;;;;;3.37;1.00;;;;;;;;;;5277603;28;20020;-76
2021/12/02 04:56:12;;;;;;;4.50;1.10;;;;;;;;;;5278030;28;20524;-75
2021/12/02 04:58:44;;;;;;;8.70;1.23;;;;;;;;;;5277221;28;20059;-76
2021/12/02 05:01:15;;;;;;;7.40;1.83;;;;;;;;;;5277850;28;20035;-77
2021/12/02 05:03:48;;;;;;;6.25;1.30;;;;;;;;;;5278052;28;20440;-76
2021/12/02 05:06:19;;;;;;;8.93;1.60;;;;;;;;;;5277578;28;20043;-76
2021/12/02 05:08:51;;;;;;;5.60;1.27;;;;;;;;;;5278425;28;20024;-77
2021/12/02 05:11:22;;;;;;;9.53;1.27;;;;;;;;;;5259985;28;20480;-77
2021/12/02 05:13:53;;;;;;;5.50;1.33;;;;;;;;;;5277159;28;20123;-77
2021/12/02 05:16:24;;;;;;;8.27;1.40;;;;;;;;;;5277833;28;20016;-77
2021/12/02 05:18:56;;;;;;;10.07;2.30;;;;;;;;;;5277615;28;20048;-76
2021/12/02 05:21:27;;;;;;;9.57;1.87;;;;;;;;;;5276882;28;20021;-76
2021/12/02 05:24:01;;;;;;;9.83;1.93;;;;;;;;;;5278236;28;20112;-75
2021/12/02 05:26:32;;;;;;;4.40;1.10;;;;;;;;;;5256639;28;20465;-75
2021/12/02 05:29:03;;;;;;;6.17;1.33;;;;;;;;;;5255795;28;20013;-76
2021/12/02 05:31:35;;;;;;;3.10;0.97;;;;;;;;;;5256798;28;20009;-76
2021/12/02 05:34:06;;;;;;;5.23;1.37;;;;;;;;;;5256772;28;20025;-76
2021/12/02 05:36:37;;;;;;;5.37;0.93;;;;;;;;;;5264178;28;20214;-75
2021/12/02 05:39:08;;;;;;;3.77;0.83;;;;;;;;;;5247214;28;20418;-75
2021/12/02 05:41:39;;;;;;;3.53;0.63;;;;;;;;;;5268420;28;20028;-76
2021/12/02 05:44:11;;;;;;;4.63;0.60;;;;;;;;;;5259628;28;20850;-76
2021/12/02 05:46:42;;;;;;;6.03;1.17;;;;;;;;;;5275747;28;20013;-76
2021/12/02 05:49:13;;;;;;;2.17;0.50;;;;;;;;;;5273315;28;20445;-76
2021/12/02 05:52:01;;;;;;;5.03;0.73;;;;;;;;;;5276952;28;20111;-76
2021/12/02 05:54:32;;;;;;;1.67;0.50;;;;;;;;;;5277140;28;20103;-77
2021/12/02 05:57:03;;;;;;;3.27;0.67;;;;;;;;;;5275732;28;20116;-77
2021/12/02 05:59:34;;;;;;;5.30;2.30;;;;;;;;;;5264685;28;20044;-76
2021/12/02 06:02:07;;;;;;;4.63;0.60;;;;;;;;;;5238488;28;20044;-75
2021/12/02 06:04:39;;;;;;;3.33;0.80;;;;;;;;;;5258952;28;20510;-76
2021/12/02 06:07:10;;;;;;;5.00;0.60;;;;;;;;;;5277076;28;20013;-76
2021/12/02 06:09:42;;;;;;;5.37;0.70;;;;;;;;;;5276803;28;20467;-76
2021/12/02 06:12:14;;;;;;;2.57;0.70;;;;;;;;;;5273884;28;20024;-75
2021/12/02 06:14:45;;;;;;;3.20;0.60;;;;;;;;;;5276572;28;20021;-76
2021/12/02 06:17:16;;;;;;;0.87;0.50;;;;;;;;;;5248881;28;20065;-75
2021/12/02 06:19:47;;;;;;;3.27;0.70;;;;;;;;;;5257182;28;20393;-75
2021/12/02 06:22:18;;;;;;;4.85;0.75;;;;;;;;;;5262257;28;20025;-75
2021/12/02 06:25:44;;;;;;;4.40;1.10;;;;;;;;;;5245577;28;20020;-75
2021/12/02 06:27:56;;;;;;;4.63;0.70;;;;;;;;;;5261650;28;20033;-76
2021/12/02 06:30:27;;;;;;;2.00;0.83;;;;;;;;;;5267727;28;20061;-76
2021/12/02 06:32:58;;;;;;;2.23;0.63;;;;;;;;;;5275711;28;20008;-78
2021/12/02 06:35:30;;;;;;;4.47;1.23;;;;;;;;;;5258439;28;20511;-79
2021/12/02 06:38:01;;;;;;;1.97;0.70;;;;;;;;;;5266815;28;20095;-76
2021/12/02 06:40:34;;;;;;;4.00;1.40;;;;;;;;;;5268788;28;20013;-76
2021/12/02 06:43:05;;;;;;;6.90;1.23;;;;;;;;;;5275248;28;20464;-77
2021/12/02 06:45:37;;;;;;;2.70;0.60;;;;;;;;;;5257842;28;20021;-77
2021/12/02 06:48:08;;;;;;;3.77;0.97;;;;;;;;;;5274022;28;20017;-75
2021/12/02 06:50:39;;;;;;;3.80;0.90;;;;;;;;;;5273890;28;20028;-75
2021/12/02 06:53:11;;;;;;;8.20;1.93;;;;;;;;;;5255597;28;20017;-76
2021/12/02 06:55:42;;;;;;;5.27;1.30;;;;;;;;;;5264280;28;20036;-76
2021/12/02 06:58:13;;;;;;;4.27;2.07;;;;;;;;;;5248484;28;20484;-79
2021/12/02 07:00:44;;;;;;;2.53;1.23;;;;;;;;;;5274811;28;20530;-77
2021/12/02 07:03:16;;;;;;;5.87;1.37;;;;;;;;;;5257585;28;20087;-78
2021/12/02 07:05:55;;;;;;;3.67;1.53;;;;;;;;;;5256573;28;20028;-76
2021/12/02 07:08:26;;;;;;;5.20;1.30;;;;;;;;;;5275264;28;20326;-76
2021/12/02 07:11:03;;;;;;;4.37;1.53;;;;;;;;;;5255119;28;20021;-75
2021/12/02 07:13:37;;;;;;;4.03;1.50;;;;;;;;;;5253199;28;20568;-75
2021/12/02 07:16:26;;;;;;;5.37;1.43;;;;;;;;;;5254870;28;20866;-75
2021/12/02 07:18:58;;;;;;;7.63;1.30;;;;;;;;;;5254863;28;20062;-75
2021/12/02 07:21:30;;;;;;;7.10;1.70;;;;;;;;;;5254497;28;20017;-76
2021/12/02 07:24:02;;;;;;;6.83;1.90;;;;;;;;;;5237297;28;20101;-75
2021/12/02 07:26:34;;;;;;;5.20;1.70;;;;;;;;;;5253381;28;20092;-75
2021/12/02 07:29:05;;;;;;;4.87;1.80;;;;;;;;;;5254126;28;20465;-75
2021/12/02 07:31:37;;;;;;;7.27;1.73;;;;;;;;;;5261793;28;20065;-74
2021/12/02 07:34:09;;;;;;;5.90;2.03;;;;;;;;;;5257882;28;20021;-75
2021/12/02 07:36:41;;;;;;;4.03;1.63;;;;;;;;;;5264046;28;20013;-75
2021/12/02 07:39:12;;;;;;;7.90;1.20;;;;;;;;;;5246659;28;20186;-75
2021/12/02 07:41:44;;;;;;;2.58;1.30;;;;;;;;;;5265267;28;20036;-76
2021/12/02 07:44:15;;;;;;;5.83;2.63;;;;;;;;;;5263844;28;20028;-76
2021/12/02 07:46:47;;;;;;;6.33;1.67;;;;;;;;;;5262006;28;20024;-76
2021/12/02 07:49:18;;;;;;;10.03;1.90;;;;;;;;;;5263972;28;20020;-76
2021/12/02 07:51:50;;;;;;;6.00;2.07;;;;;;;;;;5247436;28;20111;-76
2021/12/02 07:54:21;;;;;;;6.80;1.97;;;;;;;;;;5275058;28;20502;-75
2021/12/02 07:56:53;;;;;;;3.97;1.57;;;;;;;;;;5273041;28;20025;-75
2021/12/02 07:59:24;;;;;;;6.73;2.30;;;;;;;;;;5241941;28;20032;-74
2021/12/02 08:02:00;;;;;;;4.47;1.43;;;;;;;;;;5250233;28;20016;-75
2021/12/02 08:04:31;;;;;;;5.97;1.80;;;;;;;;;;5271266;28;20235;-75
2021/12/02 08:07:03;;;;;;;5.30;1.77;;;;;;;;;;5239686;28;20134;-74
2021/12/02 08:09:34;;;;;;;5.63;2.23;;;;;;;;;;5256715;28;20017;-74
2021/12/02 08:12:05;;;;;;;8.10;2.17;;;;;;;;;;5275915;28;20077;-74
2021/12/02 08:14:36;;;;;;;4.67;1.87;;;;;;;;;;5276399;28;20083;-74
2021/12/02 08:17:09;;;;;;;9.40;2.63;;;;;;;;;;5261092;28;20052;-74
2021/12/02 08:19:41;;;;;;;11.03;2.70;;;;;;;;;;5243551;28;20025;-75
2021/12/02 08:22:13;;;;;;;5.47;2.53;;;;;;;;;;5273686;28;20020;-74
2021/12/02 08:24:44;;;;;;;4.03;2.30;;;;;;;;;;5269913;28;20027;-75
2021/12/02 08:27:15;;;;;;;6.77;2.47;;;;;;;;;;5263068;28;20059;-75
2021/12/02 08:29:46;;;;;;;6.33;3.37;;;;;;;;;;5270915;28;20013;-75
2021/12/02 08:32:20;;;;;;;6.47;2.70;;;;;;;;;;5264332;28;20058;-75
2021/12/02 08:34:53;;;;;;;7.30;2.45;;;;;;;;;;5273651;28;20016;-75
2021/12/02 08:37:27;;;;;;;6.93;2.17;;;;;;;;;;5276732;28;20120;-75
2021/12/02 08:40:00;;;;;;;6.97;2.23;;;;;;;;;;5273327;28;20020;-75
2021/12/02 08:42:32;;;;;;;7.37;1.80;;;;;;;;;;5264518;28;20052;-75
2021/12/02 08:45:04;;;;;;;5.60;1.93;;;;;;;;;;5258218;28;20016;-74
2021/12/02 08:47:43;;;;;;;6.17;2.10;;;;;;;;;;5263495;28;20009;-74
2021/12/02 08:50:19;;;;;;;6.17;1.40;;;;;;;;;;5262101;28;20518;-75
2021/12/02 08:52:50;;;;;;;5.67;2.43;;;;;;;;;;5265791;28;20108;-74
2021/12/02 08:55:23;;;;;;;5.33;2.37;;;;;;;;;;5272005;28;20055;-74
2021/12/02 08:57:54;;;;;;;6.03;1.80;;;;;;;;;;5271060;28;20022;-73
2021/12/02 09:00:33;;;;;;;7.47;2.13;;;;;;;;;;5242717;28;20348;-74
2021/12/02 09:03:07;;;;;;;7.33;2.57;;;;;;;;;;5255630;28;20078;-75
2021/12/02 09:05:39;;;;;;;5.83;2.00;;;;;;;;;;5252576;28;21370;-75
2021/12/02 09:08:10;;;;;;;6.07;1.80;;;;;;;;;;5267492;28;20022;-75
2021/12/02 09:10:41;;;;;;;15.23;2.50;;;;;;;;;;5250496;28;20415;-75
2021/12/02 09:13:12;;;;;;;8.90;2.83;;;;;;;;;;5264949;28;20048;-74
2021/12/02 09:15:44;;;;;;;5.23;2.13;;;;;;;;;;5267840;28;20574;-75
2021/12/02 09:18:15;;;;;;;12.33;2.40;;;;;;;;;;5264771;28;20055;-74
2021/12/02 09:20:46;;;;;;;5.33;2.20;;;;;;;;;;5263687;28;20516;-75
2021/12/02 09:23:17;;;;;;;8.33;2.57;;;;;;;;;;5275598;28;20037;-75
2021/12/02 09:25:48;;;;;;;13.10;2.07;;;;;;;;;;5275345;28;20028;-75
2021/12/02 09:28:20;;;;;;;5.00;1.73;;;;;;;;;;5269301;28;20033;-74
2021/12/02 09:30:51;;;;;;;8.83;2.33;;;;;;;;;;5267754;28;20020;-75
2021/12/02 09:33:23;;;;;;;5.30;1.60;;;;;;;;;;5275235;28;20024;-75
2021/12/02 09:35:54;;;;;;;9.93;1.83;;;;;;;;;;5256894;28;20442;-74
2021/12/02 09:38:25;;;;;;;12.93;2.70;;;;;;;;;;5269756;28;20009;-74
2021/12/02 09:40:56;;;;;;;8.63;2.00;;;;;;;;;;5267835;28;20074;-75
2021/12/02 09:43:27;;;;;;;6.07;1.77;;;;;;;;;;5272060;28;20103;-74
2021/12/02 09:46:00;;;;;;;6.30;1.77;;;;;;;;;;5260179;28;20008;-75
2021/12/02 09:48:32;;;;;;;6.43;3.07;;;;;;;;;;5248278;28;20101;-74
2021/12/02 09:51:07;;;;;;;11.70;2.53;;;;;;;;;;5267930;28;20091;-74
2021/12/02 09:54:05;;;;;;;7.20;1.67;;;;;;;;;;5274218;28;20024;-74
2021/12/02 09:56:32;;;;;;;6.73;1.80;;;;;;;;;;5272704;28;20380;-75
2021/12/02 09:59:07;;;;;;;8.40;1.93;;;;;;;;;;5266478;28;20695;-75
2021/12/02 10:01:43;;;;;;;8.27;1.87;;;;;;;;;;5273946;28;20389;-75
2021/12/02 10:04:14;;;;;;;7.10;1.57;;;;;;;;;;5270400;28;20024;-75
2021/12/02 10:06:46;;;;;;;8.20;1.97;;;;;;;;;;5262611;28;20017;-74
2021/12/02 10:09:36;;;;;;;6.30;2.00;;;;;;;;;;5261638;28;20146;-74
2021/12/02 10:12:17;;;;;;;11.67;1.83;;;;;;;;;;5248752;28;20100;-75
2021/12/02 10:14:50;;;;;;;12.67;2.23;;;;;;;;;;5267206;28;20076;-76
2021/12/02 10:17:34;;;;;;;8.03;1.67;;;;;;;;;;5269719;28;20056;-76
2021/12/02 10:20:20;;;;;;;10.00;3.00;;;;;;;;;;5240846;28;20021;-75
2021/12/02 10:23:14;;;;;;;15.27;3.23;;;;;;;;;;5247863;28;20281;-75
2021/12/02 10:25:55;;;;;;;9.13;1.97;;;;;;;;;;5273744;28;20009;-74
2021/12/02 10:28:28;;;;;;;7.63;3.47;;;;;;;;;;5267137;28;20083;-75
2021/12/02 10:31:01;;;;;;;7.20;3.00;;;;;;;;;;5264656;28;20024;-75
2021/12/02 10:33:37;;;;;;;7.95;1.60;;;;;;;;;;5273534;28;20453;-74
2021/12/02 10:36:28;;;;;;;11.57;2.47;;;;;;;;;;5273475;28;20032;-75
2021/12/02 10:39:02;;;;;;;8.60;2.27;;;;;;;;;;5267450;28;20020;-75
2021/12/02 10:41:33;;;;;;;8.63;1.83;;;;;;;;;;5261098;28;20020;-75
2021/12/02 10:44:19;;;;;;;8.33;2.17;;;;;;;;;;5245061;28;20345;-75
2021/12/02 10:47:01;;;;;;;6.63;1.63;;;;;;;;;;5270712;28;20028;-75
2021/12/02 10:49:39;;;;;;;9.33;1.80;;;;;;;;;;5241091;28;20054;-75
2021/12/02 10:52:13;;;;;;;6.90;1.80;;;;;;;;;;5268300;28;20025;-75
2021/12/02 10:54:47;;;;;;;7.75;1.85;;;;;;;;;;5264213;28;20013;-75
2021/12/02 10:57:19;;;;;;;14.33;3.90;;;;;;;;;;5250625;28;20020;-74
2021/12/02 10:59:53;;;;;;;8.47;3.80;;;;;;;;;;5241684;28;20115;-74
2021/12/02 11:02:26;;;;;;;9.23;2.50;;;;;;;;;;5246738;28;20009;-74
2021/12/02 11:05:01;;;;;;;9.83;2.37;;;;;;;;;;5245618;28;20025;-74
2021/12/02 11:07:32;;;;;;;;;;;;;;;;;;5252400;28;20008;-74
2021/12/02 11:10:05;;;;;;;8.20;3.03;;;;;;;;;;5266048;28;19911;-74
2021/12/02 11:12:37;;;;;;;12.03;3.20;;;;;;;;;;5266792;28;20034;-74
2021/12/02 11:15:12;;;;;;;8.57;2.20;;;;;;;;;;5260854;28;20449;-74
2021/12/02 11:17:48;;;;;;;14.43;2.25;;;;;;;;;;5263101;28;20468;-74
2021/12/02 11:20:30;;;;;;;9.40;2.83;;;;;;;;;;5264281;28;20037;-74
2021/12/02 11:23:03;;;;;;;8.17;2.40;;;;;;;;;;5241374;28;20568;-74
2021/12/02 11:25:36;;;;;;;7.87;3.37;;;;;;;;;;5246623;28;20029;-74
2021/12/02 11:28:08;;;;;;;9.87;2.50;;;;;;;;;;5263251;28;20013;-74
2021/12/02 11:30:40;;;;;;;6.70;2.27;;;;;;;;;;5271712;28;20027;-75
2021/12/02 11:33:11;;;;;;;13.23;3.03;;;;;;;;;;5270106;28;20005;-76
2021/12/02 11:35:43;;;;;;;5.93;1.58;;;;;;;;;;5262251;28;20023;-75
2021/12/02 11:38:17;;;;;;;9.03;2.07;;;;;;;;;;5248506;28;20051;-75
2021/12/02 11:40:49;;;;;;;9.10;2.70;;;;;;;;;;5266540;28;20477;-75
2021/12/02 11:43:31;;;;;;;5.70;1.67;;;;;;;;;;5272660;28;20033;-76
2021/12/02 11:46:03;;;;;;;5.23;1.70;;;;;;;;;;5262874;28;20544;-76
2021/12/02 11:48:39;;;;;;;6.07;1.63;;;;;;;;;;5261414;28;20021;-76
2021/12/02 11:51:19;;;;;;;7.93;1.67;;;;;;;;;;5272817;28;20028;-76
2021/12/02 11:53:50;;;;;;;2.90;1.10;;;;;;;;;;5261169;28;20616;-76
2021/12/02 11:56:22;;;;;;;4.30;1.52;;;;;;;;;;5276011;28;20066;-76
2021/12/02 11:58:54;;;;;;;2.57;1.40;;;;;;;;;;5265873;28;20009;-76
2021/12/02 12:01:26;;;;;;;5.00;0.70;;;;;;;;;;5273615;28;20052;-76
2021/12/02 12:04:04;;;;;;;1.83;0.93;;;;;;;;;;5258752;28;20453;-76
2021/12/02 12:06:36;;;;;;;1.17;0.37;;;;;;;;;;5265165;28;21353;-76
2021/12/02 12:09:16;;;;;;;1.70;0.40;;;;;;;;;;5269385;28;20062;-76
2021/12/02 12:11:51;;;;;;;1.20;0.93;;;;;;;;;;5274668;28;20467;-75
2021/12/02 12:14:52;;;;;;;2.07;0.77;;;;;;;;;;5251617;28;20132;-75
2021/12/02 12:17:38;;;;;;;1.73;0.57;;;;;;;;;;5236747;28;20036;-75
2021/12/02 12:20:11;;;;;;;1.07;0.50;;;;;;;;;;5272954;28;20499;-77
2021/12/02 12:22:42;;;;;;;2.73;0.90;;;;;;;;;;5270783;28;20365;-77
2021/12/02 12:25:28;;;;;;;3.40;1.38;;;;;;;;;;5259595;28;20023;-77
2021/12/02 12:28:00;;;;;;;3.27;1.10;;;;;;;;;;5262971;28;20025;-77
2021/12/02 12:30:37;;;;;;;6.20;1.97;;;;;;;;;;5256057;28;20484;-75
2021/12/02 12:33:27;;;;;;;2.17;0.90;;;;;;;;;;5258824;28;20024;-76
2021/12/02 12:36:13;;;;;;;4.90;0.77;;;;;;;;;;5274813;28;20024;-75
2021/12/02 12:38:45;;;;;;;2.23;0.67;;;;;;;;;;5265434;28;20021;-76
2021/12/02 12:41:18;;;;;;;2.50;0.90;;;;;;;;;;5270387;28;20062;-77
2021/12/02 12:43:50;;;;;;;5.20;0.90;;;;;;;;;;5271301;28;20069;-77
2021/12/02 12:46:26;;;;;;;4.70;1.63;;;;;;;;;;5246679;28;20013;-76
2021/12/02 12:49:13;;;;;;;5.33;1.73;;;;;;;;;;5273258;28;20013;-76
2021/12/02 12:51:49;;;;;;;2.33;1.43;;;;;;;;;;5265118;28;20342;-77
2021/12/02 12:54:22;;;;;;;3.37;1.70;;;;;;;;;;5267907;28;20078;-76
2021/12/02 12:57:04;;;;;;;3.38;1.30;;;;;;;;;;5255645;28;20016;-77
2021/12/02 12:59:49;;;;;;;3.93;1.23;;;;;;;;;;5250517;28;20044;-76
2021/12/02 13:02:21;;;;;;;4.85;1.23;;;;;;;;;;5255964;28;20105;-77
2021/12/02 13:04:54;;;;;;;2.60;1.10;;;;;;;;;;5251700;28;20656;-76
2021/12/02 13:07:26;;;;;;;4.47;1.53;;;;;;;;;;5254561;28;20036;-77
2021/12/02 13:10:02;;;;;;;2.03;1.00;;;;;;;;;;5248538;28;20396;-76
2021/12/02 13:12:36;;;;;;;6.07;1.50;;;;;;;;;;5233292;28;20029;-76
2021/12/02 13:15:08;;;;;;;6.18;1.23;;;;;;;;;;5241913;28;20076;-75
2021/12/02 13:17:53;;;;;;;1.40;0.80;;;;;;;;;;5254579;28;20121;-76
2021/12/02 13:20:24;;;;;;;;;;;;;;;;;;5254883;28;20068;-76
2021/12/02 13:23:28;;;;;;;2.80;1.33;;;;;;;;;;5235845;28;20723;-76
2021/12/02 13:26:03;;;;;;;4.77;0.70;;;;;;;;;;5198148;28;20039;-75
2021/12/02 13:28:38;;;;;;;1.73;0.67;;;;;;;;;;5259208;28;20074;-75
2021/12/02 13:31:11;;;;;;;4.27;1.13;;;;;;;;;;5236800;28;20027;-76
2021/12/02 13:33:44;;;;;;;1.30;0.97;;;;;;;;;;5254489;28;20029;-77
2021/12/02 13:36:16;;;;;;;1.47;0.90;;;;;;;;;;5256985;28;20044;-76
2021/12/02 13:39:00;;;;;;;3.17;1.43;;;;;;;;;;5233873;28;20047;-77
2021/12/02 13:41:56;;;;;;;2.03;1.00;;;;;;;;;;5234397;28;20076;-76
2021/12/02 13:44:29;;;;;;;2.53;0.67;;;;;;;;;;5254787;28;20024;-76
2021/12/02 13:47:02;;;;;;;1.13;0.60;;;;;;;;;;5259607;28;20091;-76
2021/12/02 13:49:38;;;;;;;1.10;0.70;;;;;;;;;;5253627;28;20032;-75
2021/12/02 13:52:20;;;;;;;1.13;0.60;;;;;;;;;;5250957;28;20017;-76
2021/12/02 13:55:00;;;;;;;1.83;0.70;;;;;;;;;;5233380;28;20636;-76
2021/12/02 13:57:35;;;;;;;0.93;0.63;;;;;;;;;;5253576;28;20052;-76
2021/12/02 14:00:25;;;;;;;3.40;1.07;;;;;;;;;;5235496;28;20032;-76
2021/12/02 14:03:00;;;;;;;0.80;0.50;;;;;;;;;;5256004;28;20035;-75
2021/12/02 14:05:33;;;;;;;2.10;1.30;;;;;;;;;;5243002;28;20028;-76
2021/12/02 14:08:06;;;;;;;2.63;0.70;;;;;;;;;;5268145;28;20092;-76
2021/12/02 14:10:38;;;;;;;0.50;0.50;;;;;;;;;;5273984;28;20035;-75
2021/12/02 14:13:14;;;;;;;2.70;0.57;;;;;;;;;;5274829;28;20041;-76
2021/12/02 14:15:46;;;;;;;2.37;0.63;;;;;;;;;;5257563;28;20024;-77
2021/12/02 14:18:22;;;;;;;1.40;0.77;;;;;;;;;;5273792;28;20329;-77
2021/12/02 14:20:57;;;;;;;1.63;0.80;;;;;;;;;;5267965;28;20692;-77
2021/12/02 14:23:28;;;;;;;1.47;0.70;;;;;;;;;;5270027;28;20056;-74
2021/12/02 14:26:06;;;;;;;1.70;0.80;;;;;;;;;;5274779;28;20103;-74
2021/12/02 14:28:42;;;;;;;2.83;0.80;;;;;;;;;;5271492;28;20020;-73
2021/12/02 14:31:20;;;;;;;2.13;1.00;;;;;;;;;;5274753;28;20035;-74
2021/12/02 14:33:53;;;;;;;2.53;1.10;;;;;;;;;;5258798;28;20021;-74
2021/12/02 14:36:26;;;;;;;1.70;0.90;;;;;;;;;;5255317;28;20036;-74
2021/12/02 14:38:58;;;;;;;1.40;0.70;;;;;;;;;;5243983;28;20362;-74
2021/12/02 14:41:44;;;;;;;1.17;0.70;;;;;;;;;;5262705;28;20047;-75
2021/12/02 14:44:19;;;;;;;0.87;0.60;;;;;;;;;;5275356;28;20020;-75
2021/12/02 14:46:54;;;;;;;3.97;1.00;;;;;;;;;;5275355;28;20038;-75
2021/12/02 14:49:31;;;;;;;2.83;1.30;;;;;;;;;;5271460;28;20029;-75
2021/12/02 14:52:15;;;;;;;3.53;1.27;;;;;;;;;;5256880;28;20602;-74
2021/12/02 14:54:50;;;;;;;3.43;1.33;;;;;;;;;;5275017;28;20368;-74
2021/12/02 14:57:25;;;;;;;2.33;1.23;;;;;;;;;;5272838;28;20028;-74
2021/12/02 14:59:58;;;;;;;2.23;0.90;;;;;;;;;;5250439;28;20391;-74
2021/12/02 15:02:38;;;;;;;2.27;1.10;;;;;;;;;;5244728;28;20550;-74
2021/12/02 15:08:33;;;;;;;5.80;2.10;;;;;;;;;;5264359;28;20116;-74
2021/12/02 15:11:09;;;;;;;3.23;1.30;;;;;;;;;;5272761;28;20447;-74
2021/12/02 15:14:12;;;;;;;3.10;0.97;;;;;;;;;;5264816;28;20048;-75
2021/12/02 15:16:55;;;;;;;3.27;0.90;;;;;;;;;;5246262;28;20020;-74
2021/12/02 15:19:30;;;;;;;2.17;0.90;;;;;;;;;;5258955;28;20017;-75
2021/12/02 15:22:02;;;;;;;6.33;2.23;;;;;;;;;;5269471;28;20099;-75
2021/12/02 15:24:35;;;;;;;4.97;1.37;;;;;;;;;;5269030;28;20108;-75
2021/12/02 15:27:07;;;;;;;3.00;1.10;;;;;;;;;;5252438;28;20059;-73
2021/12/02 15:29:45;;;;;;;3.70;1.07;;;;;;;;;;5262401;28;21195;-74
2021/12/02 15:32:17;;;;;;;1.90;1.00;;;;;;;;;;5247192;28;20021;-74
2021/12/02 15:34:48;;;;;;;4.00;1.60;;;;;;;;;;5249633;28;20020;-75
2021/12/02 15:37:19;;;;;;;2.03;1.20;;;;;;;;;;5248810;28;20012;-75
2021/12/02 15:39:50;;;;;;;3.60;1.57;;;;;;;;;;5257348;28;20108;-75